sensor_id;sensor_type;location;lat;lon;timestamp;temperature;humidity
15554;DHT22;7878;44.632;10.942;2023-07-31T00:00:46;28.10;99.90
15554;DHT22;7878;44.632;10.942;2023-07-31T00:03:12;28.20;99.90
15554;DHT22;7878;44.632;10.942;2023-07-31T00:05:38;28.20;99.90
15554;DHT22;7878;44.632;10.942;2023-07-31T00:08:03;28.20;99.90
15554;DHT22;7878;44.632;10.942;2023-07-31T00:10:29;28.20;99.90
15554;DHT22;7878;44.632;10.942;2023-07-31T00:12:55;28.20;99.90
15554;DHT22;7878;44.632;10.942;2023-07-31T00:15:20;28.00;99.90
15554;DHT22;7878;44.632;10.942;2023-07-31T00:17:46;28.00;99.90
15554;DHT22;7878;44.632;10.942;2023-07-31T00:20:13;27.90;99.90
15554;DHT22;7878;44.632;10.942;2023-07-31T00:22:38;27.90;99.90
15554;DHT22;7878;44.632;10.942;2023-07-31T00:25:04;27.80;99.90
15554;DHT22;7878;44.632;10.942;2023-07-31T00:27:32;27.80;99.90
15554;DHT22;7878;44.632;10.942;2023-07-31T00:29:58;27.80;99.90
15554;DHT22;7878;44.632;10.942;2023-07-31T00:32:23;27.70;99.90
15554;DHT22;7878;44.632;10.942;2023-07-31T00:34:49;27.70;99.90
15554;DHT22;7878;44.632;10.942;2023-07-31T00:37:15;27.70;99.90
15554;DHT22;7878;44.632;10.942;2023-07-31T00:39:41;27.60;99.90
15554;DHT22;7878;44.632;10.942;2023-07-31T00:42:06;27.50;99.90
15554;DHT22;7878;44.632;10.942;2023-07-31T00:44:32;27.40;99.90
15554;DHT22;7878;44.632;10.942;2023-07-31T00:46:58;27.40;99.90
15554;DHT22;7878;44.632;10.942;2023-07-31T00:49:24;27.20;99.90
15554;DHT22;7878;44.632;10.942;2023-07-31T00:51:50;27.20;99.90
15554;DHT22;7878;44.632;10.942;2023-07-31T00:54:16;27.20;99.90
15554;DHT22;7878;44.632;10.942;2023-07-31T00:56:45;27.00;99.90
15554;DHT22;7878;44.632;10.942;2023-07-31T00:59:11;27.00;99.90
15554;DHT22;7878;44.632;10.942;2023-07-31T01:01:37;26.90;99.90
15554;DHT22;7878;44.632;10.942;2023-07-31T01:04:04;27.00;99.90
15554;DHT22;7878;44.632;10.942;2023-07-31T01:11:55;27.20;99.90
15554;DHT22;7878;44.632;10.942;2023-07-31T01:14:22;27.30;99.90
15554;DHT22;7878;44.632;10.942;2023-07-31T01:16:47;27.30;99.90
15554;DHT22;7878;44.632;10.942;2023-07-31T01:19:15;27.30;99.90
15554;DHT22;7878;44.632;10.942;2023-07-31T01:28:08;27.10;99.90
15554;DHT22;7878;44.632;10.942;2023-07-31T01:30:40;26.90;99.90
15554;DHT22;7878;44.632;10.942;2023-07-31T01:33:07;26.80;99.90
15554;DHT22;7878;44.632;10.942;2023-07-31T01:35:34;26.70;99.90
15554;DHT22;7878;44.632;10.942;2023-07-31T01:38:01;26.80;99.90
15554;DHT22;7878;44.632;10.942;2023-07-31T01:40:26;26.80;99.90
15554;DHT22;7878;44.632;10.942;2023-07-31T01:42:52;26.80;99.90
15554;DHT22;7878;44.632;10.942;2023-07-31T01:45:18;26.80;99.90
15554;DHT22;7878;44.632;10.942;2023-07-31T01:47:44;26.80;99.90
15554;DHT22;7878;44.632;10.942;2023-07-31T01:50:09;26.90;99.90
15554;DHT22;7878;44.632;10.942;2023-07-31T01:52:35;26.80;99.90
15554;DHT22;7878;44.632;10.942;2023-07-31T01:55:01;26.80;99.90
15554;DHT22;7878;44.632;10.942;2023-07-31T01:57:27;26.70;99.90
15554;DHT22;7878;44.632;10.942;2023-07-31T01:59:52;26.80;99.90
15554;DHT22;7878;44.632;10.942;2023-07-31T02:02:19;26.80;99.90
15554;DHT22;7878;44.632;10.942;2023-07-31T02:04:45;26.80;99.90
15554;DHT22;7878;44.632;10.942;2023-07-31T02:07:11;26.80;99.90
15554;DHT22;7878;44.632;10.942;2023-07-31T02:09:36;26.80;99.90
15554;DHT22;7878;44.632;10.942;2023-07-31T02:12:02;26.80;99.90
15554;DHT22;7878;44.632;10.942;2023-07-31T02:14:28;26.90;99.90
15554;DHT22;7878;44.632;10.942;2023-07-31T02:16:54;26.90;99.90
15554;DHT22;7878;44.632;10.942;2023-07-31T02:19:19;26.90;99.90
15554;DHT22;7878;44.632;10.942;2023-07-31T02:21:45;26.90;99.90
15554;DHT22;7878;44.632;10.942;2023-07-31T02:24:11;26.90;99.90
15554;DHT22;7878;44.632;10.942;2023-07-31T02:26:36;27.00;99.90
15554;DHT22;7878;44.632;10.942;2023-07-31T02:29:02;27.00;99.90
15554;DHT22;7878;44.632;10.942;2023-07-31T02:31:28;27.00;99.90
15554;DHT22;7878;44.632;10.942;2023-07-31T02:33:54;26.90;99.90
15554;DHT22;7878;44.632;10.942;2023-07-31T02:36:20;26.90;99.90
15554;DHT22;7878;44.632;10.942;2023-07-31T02:38:45;26.90;99.90
15554;DHT22;7878;44.632;10.942;2023-07-31T02:41:11;26.90;99.90
15554;DHT22;7878;44.632;10.942;2023-07-31T02:43:37;27.00;99.90
15554;DHT22;7878;44.632;10.942;2023-07-31T02:46:02;27.00;99.90
15554;DHT22;7878;44.632;10.942;2023-07-31T02:48:28;26.90;99.90
15554;DHT22;7878;44.632;10.942;2023-07-31T02:50:54;27.00;99.90
15554;DHT22;7878;44.632;10.942;2023-07-31T02:53:19;27.00;99.90
15554;DHT22;7878;44.632;10.942;2023-07-31T02:55:45;27.00;99.90
15554;DHT22;7878;44.632;10.942;2023-07-31T02:58:11;27.00;99.90
15554;DHT22;7878;44.632;10.942;2023-07-31T03:00:42;27.00;99.90
15554;DHT22;7878;44.632;10.942;2023-07-31T03:03:08;27.00;99.90
15554;DHT22;7878;44.632;10.942;2023-07-31T03:05:33;26.90;99.90
15554;DHT22;7878;44.632;10.942;2023-07-31T03:07:59;26.90;99.90
15554;DHT22;7878;44.632;10.942;2023-07-31T03:10:25;26.90;99.90
15554;DHT22;7878;44.632;10.942;2023-07-31T03:12:50;26.90;99.90
15554;DHT22;7878;44.632;10.942;2023-07-31T03:15:16;26.90;99.90
15554;DHT22;7878;44.632;10.942;2023-07-31T03:17:42;26.90;99.90
15554;DHT22;7878;44.632;10.942;2023-07-31T03:20:08;26.90;99.90
15554;DHT22;7878;44.632;10.942;2023-07-31T03:22:34;26.80;99.90
15554;DHT22;7878;44.632;10.942;2023-07-31T03:25:01;26.80;99.90
15554;DHT22;7878;44.632;10.942;2023-07-31T03:27:27;26.70;99.90
15554;DHT22;7878;44.632;10.942;2023-07-31T03:29:52;26.70;99.90
15554;DHT22;7878;44.632;10.942;2023-07-31T03:32:18;26.70;99.90
15554;DHT22;7878;44.632;10.942;2023-07-31T03:34:44;26.70;99.90
15554;DHT22;7878;44.632;10.942;2023-07-31T03:37:09;26.70;99.90
15554;DHT22;7878;44.632;10.942;2023-07-31T03:39:35;26.70;99.90
15554;DHT22;7878;44.632;10.942;2023-07-31T03:42:01;26.70;99.90
15554;DHT22;7878;44.632;10.942;2023-07-31T03:44:26;26.70;99.90
15554;DHT22;7878;44.632;10.942;2023-07-31T03:46:52;26.70;99.90
15554;DHT22;7878;44.632;10.942;2023-07-31T03:49:18;26.70;99.90
15554;DHT22;7878;44.632;10.942;2023-07-31T03:51:44;26.70;99.90
15554;DHT22;7878;44.632;10.942;2023-07-31T03:54:10;26.70;99.90
15554;DHT22;7878;44.632;10.942;2023-07-31T03:56:35;26.70;99.90
15554;DHT22;7878;44.632;10.942;2023-07-31T03:59:01;26.70;99.90
15554;DHT22;7878;44.632;10.942;2023-07-31T04:01:27;26.70;99.90
15554;DHT22;7878;44.632;10.942;2023-07-31T04:03:52;26.60;99.90
15554;DHT22;7878;44.632;10.942;2023-07-31T04:06:18;26.50;99.90
15554;DHT22;7878;44.632;10.942;2023-07-31T04:08:44;26.50;99.90
15554;DHT22;7878;44.632;10.942;2023-07-31T04:11:11;26.50;99.90
15554;DHT22;7878;44.632;10.942;2023-07-31T04:13:37;26.50;99.90
15554;DHT22;7878;44.632;10.942;2023-07-31T04:16:03;26.50;99.90
15554;DHT22;7878;44.632;10.942;2023-07-31T04:18:29;26.50;99.90
15554;DHT22;7878;44.632;10.942;2023-07-31T04:20:56;26.50;99.90
15554;DHT22;7878;44.632;10.942;2023-07-31T04:23:24;26.50;99.90
15554;DHT22;7878;44.632;10.942;2023-07-31T04:25:53;26.50;99.90
15554;DHT22;7878;44.632;10.942;2023-07-31T04:28:18;26.40;99.90
15554;DHT22;7878;44.632;10.942;2023-07-31T04:30:44;26.40;99.90
15554;DHT22;7878;44.632;10.942;2023-07-31T04:33:10;26.50;99.90
15554;DHT22;7878;44.632;10.942;2023-07-31T04:35:35;26.40;99.90
15554;DHT22;7878;44.632;10.942;2023-07-31T04:38:01;26.40;99.90
15554;DHT22;7878;44.632;10.942;2023-07-31T04:40:27;26.40;99.90
15554;DHT22;7878;44.632;10.942;2023-07-31T04:42:52;26.40;99.90
15554;DHT22;7878;44.632;10.942;2023-07-31T04:45:18;26.50;99.90
15554;DHT22;7878;44.632;10.942;2023-07-31T04:47:44;26.40;99.90
15554;DHT22;7878;44.632;10.942;2023-07-31T04:50:10;26.40;99.90
15554;DHT22;7878;44.632;10.942;2023-07-31T04:52:35;26.50;99.90
15554;DHT22;7878;44.632;10.942;2023-07-31T04:55:01;26.60;99.90
15554;DHT22;7878;44.632;10.942;2023-07-31T04:57:27;26.60;99.90
15554;DHT22;7878;44.632;10.942;2023-07-31T04:59:52;26.60;99.90
15554;DHT22;7878;44.632;10.942;2023-07-31T05:02:18;26.50;99.90
15554;DHT22;7878;44.632;10.942;2023-07-31T05:04:44;26.50;99.90
15554;DHT22;7878;44.632;10.942;2023-07-31T05:07:09;26.40;99.90
15554;DHT22;7878;44.632;10.942;2023-07-31T05:09:35;26.40;99.90
15554;DHT22;7878;44.632;10.942;2023-07-31T05:12:01;26.40;99.90
15554;DHT22;7878;44.632;10.942;2023-07-31T05:14:27;26.50;99.90
15554;DHT22;7878;44.632;10.942;2023-07-31T05:16:52;26.50;99.90
15554;DHT22;7878;44.632;10.942;2023-07-31T05:19:18;26.50;99.90
15554;DHT22;7878;44.632;10.942;2023-07-31T05:21:44;26.40;99.90
15554;DHT22;7878;44.632;10.942;2023-07-31T05:24:10;26.40;99.90
15554;DHT22;7878;44.632;10.942;2023-07-31T05:26:36;26.40;99.90
15554;DHT22;7878;44.632;10.942;2023-07-31T05:29:03;26.20;99.90
15554;DHT22;7878;44.632;10.942;2023-07-31T05:31:29;26.20;99.90
15554;DHT22;7878;44.632;10.942;2023-07-31T05:33:55;26.10;99.90
15554;DHT22;7878;44.632;10.942;2023-07-31T05:36:20;26.10;99.90
15554;DHT22;7878;44.632;10.942;2023-07-31T05:38:46;26.20;99.90
15554;DHT22;7878;44.632;10.942;2023-07-31T05:41:12;26.10;99.90
15554;DHT22;7878;44.632;10.942;2023-07-31T05:43:38;26.10;99.90
15554;DHT22;7878;44.632;10.942;2023-07-31T05:46:04;26.20;99.90
15554;DHT22;7878;44.632;10.942;2023-07-31T05:48:30;26.20;99.90
15554;DHT22;7878;44.632;10.942;2023-07-31T05:50:55;26.20;99.90
15554;DHT22;7878;44.632;10.942;2023-07-31T05:53:22;26.20;99.90
15554;DHT22;7878;44.632;10.942;2023-07-31T05:55:47;26.30;99.90
15554;DHT22;7878;44.632;10.942;2023-07-31T05:58:13;26.40;99.90
15554;DHT22;7878;44.632;10.942;2023-07-31T06:00:39;26.40;99.90
15554;DHT22;7878;44.632;10.942;2023-07-31T06:03:04;26.40;99.90
15554;DHT22;7878;44.632;10.942;2023-07-31T06:05:30;26.50;99.90
15554;DHT22;7878;44.632;10.942;2023-07-31T06:07:56;26.50;99.90
15554;DHT22;7878;44.632;10.942;2023-07-31T06:10:22;26.60;99.90
15554;DHT22;7878;44.632;10.942;2023-07-31T06:12:48;26.80;99.90
15554;DHT22;7878;44.632;10.942;2023-07-31T06:15:14;27.10;99.90
15554;DHT22;7878;44.632;10.942;2023-07-31T06:17:39;27.30;99.90
15554;DHT22;7878;44.632;10.942;2023-07-31T06:20:06;27.50;99.90
15554;DHT22;7878;44.632;10.942;2023-07-31T06:22:32;27.50;99.90
15554;DHT22;7878;44.632;10.942;2023-07-31T06:24:58;27.50;99.90
15554;DHT22;7878;44.632;10.942;2023-07-31T06:27:24;27.40;99.90
15554;DHT22;7878;44.632;10.942;2023-07-31T06:29:50;27.30;99.90
15554;DHT22;7878;44.632;10.942;2023-07-31T06:32:15;27.20;99.90
15554;DHT22;7878;44.632;10.942;2023-07-31T06:34:41;27.20;99.90
15554;DHT22;7878;44.632;10.942;2023-07-31T06:37:07;27.10;99.90
15554;DHT22;7878;44.632;10.942;2023-07-31T06:39:32;27.20;99.90
15554;DHT22;7878;44.632;10.942;2023-07-31T06:41:58;27.20;99.90
15554;DHT22;7878;44.632;10.942;2023-07-31T06:44:24;27.20;99.90
15554;DHT22;7878;44.632;10.942;2023-07-31T06:46:49;27.20;99.90
15554;DHT22;7878;44.632;10.942;2023-07-31T06:49:15;27.20;99.90
15554;DHT22;7878;44.632;10.942;2023-07-31T06:51:41;27.10;99.90
15554;DHT22;7878;44.632;10.942;2023-07-31T06:54:08;27.10;99.90
15554;DHT22;7878;44.632;10.942;2023-07-31T06:56:34;27.00;99.90
15554;DHT22;7878;44.632;10.942;2023-07-31T06:59:00;27.00;99.90
15554;DHT22;7878;44.632;10.942;2023-07-31T07:01:26;26.90;99.90
15554;DHT22;7878;44.632;10.942;2023-07-31T07:03:51;26.90;99.90
15554;DHT22;7878;44.632;10.942;2023-07-31T07:06:17;27.00;99.90
15554;DHT22;7878;44.632;10.942;2023-07-31T07:08:43;27.10;99.90
15554;DHT22;7878;44.632;10.942;2023-07-31T07:11:09;27.00;99.90
15554;DHT22;7878;44.632;10.942;2023-07-31T07:13:34;27.00;99.90
15554;DHT22;7878;44.632;10.942;2023-07-31T07:16:00;27.00;99.90
15554;DHT22;7878;44.632;10.942;2023-07-31T07:18:26;27.10;99.90
15554;DHT22;7878;44.632;10.942;2023-07-31T07:20:53;27.30;99.90
15554;DHT22;7878;44.632;10.942;2023-07-31T07:23:19;27.30;99.90
15554;DHT22;7878;44.632;10.942;2023-07-31T07:25:46;27.40;99.90
15554;DHT22;7878;44.632;10.942;2023-07-31T07:28:12;27.50;99.90
15554;DHT22;7878;44.632;10.942;2023-07-31T07:30:38;27.60;99.90
15554;DHT22;7878;44.632;10.942;2023-07-31T07:33:03;27.60;99.90
15554;DHT22;7878;44.632;10.942;2023-07-31T07:35:29;27.70;99.90
15554;DHT22;7878;44.632;10.942;2023-07-31T07:37:55;27.80;99.90
15554;DHT22;7878;44.632;10.942;2023-07-31T07:40:21;27.80;99.90
15554;DHT22;7878;44.632;10.942;2023-07-31T07:42:47;27.90;99.90
15554;DHT22;7878;44.632;10.942;2023-07-31T07:45:13;27.90;99.90
15554;DHT22;7878;44.632;10.942;2023-07-31T07:47:41;28.00;99.90
15554;DHT22;7878;44.632;10.942;2023-07-31T07:50:07;28.10;99.90
15554;DHT22;7878;44.632;10.942;2023-07-31T07:52:33;28.20;99.90
15554;DHT22;7878;44.632;10.942;2023-07-31T07:54:59;28.30;99.90
15554;DHT22;7878;44.632;10.942;2023-07-31T07:57:25;28.30;99.90
15554;DHT22;7878;44.632;10.942;2023-07-31T07:59:51;28.30;99.90
15554;DHT22;7878;44.632;10.942;2023-07-31T08:02:17;28.30;99.90
15554;DHT22;7878;44.632;10.942;2023-07-31T08:04:42;28.40;99.90
15554;DHT22;7878;44.632;10.942;2023-07-31T08:07:11;28.30;99.90
15554;DHT22;7878;44.632;10.942;2023-07-31T08:09:37;28.30;99.90
15554;DHT22;7878;44.632;10.942;2023-07-31T08:12:03;28.30;99.90
15554;DHT22;7878;44.632;10.942;2023-07-31T08:14:29;28.40;99.90
15554;DHT22;7878;44.632;10.942;2023-07-31T08:16:55;28.30;99.90
15554;DHT22;7878;44.632;10.942;2023-07-31T08:19:21;28.20;99.90
15554;DHT22;7878;44.632;10.942;2023-07-31T08:21:47;28.30;99.90
15554;DHT22;7878;44.632;10.942;2023-07-31T08:24:13;28.50;99.90
15554;DHT22;7878;44.632;10.942;2023-07-31T08:26:38;28.50;99.90
15554;DHT22;7878;44.632;10.942;2023-07-31T08:29:04;28.60;99.90
15554;DHT22;7878;44.632;10.942;2023-07-31T08:31:30;28.70;99.90
15554;DHT22;7878;44.632;10.942;2023-07-31T08:33:56;28.60;99.90
15554;DHT22;7878;44.632;10.942;2023-07-31T08:36:22;28.70;99.90
15554;DHT22;7878;44.632;10.942;2023-07-31T08:38:47;28.60;99.90
15554;DHT22;7878;44.632;10.942;2023-07-31T08:41:13;28.60;99.90
15554;DHT22;7878;44.632;10.942;2023-07-31T08:43:39;28.70;99.90
15554;DHT22;7878;44.632;10.942;2023-07-31T08:46:05;28.90;99.90
15554;DHT22;7878;44.632;10.942;2023-07-31T08:48:31;29.00;99.90
15554;DHT22;7878;44.632;10.942;2023-07-31T08:50:58;29.10;99.90
15554;DHT22;7878;44.632;10.942;2023-07-31T08:53:23;29.20;99.90
15554;DHT22;7878;44.632;10.942;2023-07-31T08:55:50;29.10;99.90
15554;DHT22;7878;44.632;10.942;2023-07-31T08:58:18;29.00;99.90
15554;DHT22;7878;44.632;10.942;2023-07-31T09:00:46;28.80;99.90
15554;DHT22;7878;44.632;10.942;2023-07-31T09:03:17;28.70;99.90
15554;DHT22;7878;44.632;10.942;2023-07-31T09:05:45;28.60;99.90
15554;DHT22;7878;44.632;10.942;2023-07-31T09:08:12;28.60;99.90
15554;DHT22;7878;44.632;10.942;2023-07-31T09:10:42;28.60;99.90
15554;DHT22;7878;44.632;10.942;2023-07-31T09:13:09;28.90;99.90
15554;DHT22;7878;44.632;10.942;2023-07-31T09:15:36;29.00;99.90
15554;DHT22;7878;44.632;10.942;2023-07-31T09:18:03;29.10;99.90
15554;DHT22;7878;44.632;10.942;2023-07-31T09:20:29;29.20;99.90
15554;DHT22;7878;44.632;10.942;2023-07-31T09:22:55;29.30;99.90
15554;DHT22;7878;44.632;10.942;2023-07-31T09:25:25;29.20;99.90
15554;DHT22;7878;44.632;10.942;2023-07-31T09:28:04;29.20;99.90
15554;DHT22;7878;44.632;10.942;2023-07-31T09:30:31;29.10;99.90
15554;DHT22;7878;44.632;10.942;2023-07-31T09:33:04;29.00;99.90
15554;DHT22;7878;44.632;10.942;2023-07-31T09:35:33;29.20;99.90
15554;DHT22;7878;44.632;10.942;2023-07-31T09:38:19;29.20;99.90
15554;DHT22;7878;44.632;10.942;2023-07-31T09:40:47;29.40;99.90
15554;DHT22;7878;44.632;10.942;2023-07-31T09:43:20;29.60;99.90
15554;DHT22;7878;44.632;10.942;2023-07-31T09:45:46;29.60;99.90
15554;DHT22;7878;44.632;10.942;2023-07-31T09:48:15;29.70;99.90
15554;DHT22;7878;44.632;10.942;2023-07-31T09:50:48;29.70;99.90
15554;DHT22;7878;44.632;10.942;2023-07-31T09:53:15;29.90;99.90
15554;DHT22;7878;44.632;10.942;2023-07-31T09:55:41;30.00;99.90
15554;DHT22;7878;44.632;10.942;2023-07-31T09:58:12;30.00;99.90
15554;DHT22;7878;44.632;10.942;2023-07-31T10:00:38;30.00;99.90
15554;DHT22;7878;44.632;10.942;2023-07-31T10:03:09;29.90;99.90
15554;DHT22;7878;44.632;10.942;2023-07-31T10:05:46;29.70;99.90
15554;DHT22;7878;44.632;10.942;2023-07-31T10:08:15;29.70;99.90
15554;DHT22;7878;44.632;10.942;2023-07-31T10:10:44;29.70;99.90
15554;DHT22;7878;44.632;10.942;2023-07-31T10:13:11;29.60;99.90
15554;DHT22;7878;44.632;10.942;2023-07-31T10:15:36;29.80;99.90
15554;DHT22;7878;44.632;10.942;2023-07-31T10:18:03;29.80;99.90
15554;DHT22;7878;44.632;10.942;2023-07-31T10:20:31;29.80;99.90
15554;DHT22;7878;44.632;10.942;2023-07-31T10:22:57;29.70;99.90
15554;DHT22;7878;44.632;10.942;2023-07-31T10:25:26;29.80;99.90
15554;DHT22;7878;44.632;10.942;2023-07-31T10:27:53;29.90;99.90
15554;DHT22;7878;44.632;10.942;2023-07-31T10:30:24;30.00;99.90
15554;DHT22;7878;44.632;10.942;2023-07-31T10:32:51;30.10;99.90
15554;DHT22;7878;44.632;10.942;2023-07-31T10:35:18;30.20;99.90
15554;DHT22;7878;44.632;10.942;2023-07-31T10:37:44;30.30;99.90
15554;DHT22;7878;44.632;10.942;2023-07-31T10:40:15;30.40;99.90
15554;DHT22;7878;44.632;10.942;2023-07-31T10:45:14;30.50;99.90
15554;DHT22;7878;44.632;10.942;2023-07-31T10:47:48;30.60;99.90
15554;DHT22;7878;44.632;10.942;2023-07-31T10:50:22;30.70;99.90
15554;DHT22;7878;44.632;10.942;2023-07-31T10:52:53;30.80;99.90
15554;DHT22;7878;44.632;10.942;2023-07-31T10:57:51;31.00;99.90
15554;DHT22;7878;44.632;10.942;2023-07-31T11:03:10;31.00;99.90
15554;DHT22;7878;44.632;10.942;2023-07-31T11:08:17;30.80;99.90
15554;DHT22;7878;44.632;10.942;2023-07-31T11:10:45;30.70;99.90
15554;DHT22;7878;44.632;10.942;2023-07-31T11:13:12;30.70;99.90
15554;DHT22;7878;44.632;10.942;2023-07-31T11:15:38;30.80;99.90
15554;DHT22;7878;44.632;10.942;2023-07-31T11:18:04;31.00;99.90
15554;DHT22;7878;44.632;10.942;2023-07-31T11:20:31;31.00;99.90
15554;DHT22;7878;44.632;10.942;2023-07-31T11:23:02;31.20;99.90
15554;DHT22;7878;44.632;10.942;2023-07-31T11:25:31;31.30;99.90
15554;DHT22;7878;44.632;10.942;2023-07-31T11:28:03;31.50;99.90
15554;DHT22;7878;44.632;10.942;2023-07-31T11:30:28;31.80;99.90
15554;DHT22;7878;44.632;10.942;2023-07-31T11:32:55;32.10;99.90
15554;DHT22;7878;44.632;10.942;2023-07-31T11:35:21;32.30;99.90
15554;DHT22;7878;44.632;10.942;2023-07-31T11:37:48;32.40;99.90
15554;DHT22;7878;44.632;10.942;2023-07-31T11:40:14;32.70;99.90
15554;DHT22;7878;44.632;10.942;2023-07-31T11:42:40;32.90;99.90
15554;DHT22;7878;44.632;10.942;2023-07-31T11:45:08;32.80;99.90
15554;DHT22;7878;44.632;10.942;2023-07-31T11:47:37;32.60;99.90
15554;DHT22;7878;44.632;10.942;2023-07-31T11:50:05;32.60;99.90
15554;DHT22;7878;44.632;10.942;2023-07-31T11:52:34;32.50;99.90
15554;DHT22;7878;44.632;10.942;2023-07-31T11:55:02;32.30;99.90
15554;DHT22;7878;44.632;10.942;2023-07-31T11:57:28;32.30;99.90
15554;DHT22;7878;44.632;10.942;2023-07-31T11:59:55;32.30;99.90
15554;DHT22;7878;44.632;10.942;2023-07-31T12:02:21;32.40;99.90
15554;DHT22;7878;44.632;10.942;2023-07-31T12:04:47;32.20;99.90
15554;DHT22;7878;44.632;10.942;2023-07-31T12:07:13;32.30;99.90
15554;DHT22;7878;44.632;10.942;2023-07-31T12:09:59;32.30;99.90
15554;DHT22;7878;44.632;10.942;2023-07-31T12:12:25;32.40;99.90
15554;DHT22;7878;44.632;10.942;2023-07-31T12:14:51;32.40;99.90
15554;DHT22;7878;44.632;10.942;2023-07-31T12:17:19;32.40;99.90
15554;DHT22;7878;44.632;10.942;2023-07-31T12:19:45;32.50;99.90
15554;DHT22;7878;44.632;10.942;2023-07-31T12:22:13;32.60;99.90
15554;DHT22;7878;44.632;10.942;2023-07-31T12:24:43;32.60;99.90
15554;DHT22;7878;44.632;10.942;2023-07-31T12:27:14;32.50;99.90
15554;DHT22;7878;44.632;10.942;2023-07-31T12:29:42;32.40;99.90
15554;DHT22;7878;44.632;10.942;2023-07-31T12:32:22;32.40;99.90
15554;DHT22;7878;44.632;10.942;2023-07-31T12:34:49;32.30;99.90
15554;DHT22;7878;44.632;10.942;2023-07-31T12:37:15;32.30;99.90
15554;DHT22;7878;44.632;10.942;2023-07-31T12:39:41;32.30;99.90
15554;DHT22;7878;44.632;10.942;2023-07-31T12:42:07;32.30;99.90
15554;DHT22;7878;44.632;10.942;2023-07-31T12:44:32;32.30;99.90
15554;DHT22;7878;44.632;10.942;2023-07-31T12:46:58;32.40;99.90
15554;DHT22;7878;44.632;10.942;2023-07-31T12:49:24;32.40;99.90
15554;DHT22;7878;44.632;10.942;2023-07-31T12:51:49;32.40;99.90
15554;DHT22;7878;44.632;10.942;2023-07-31T12:54:15;32.40;99.90
15554;DHT22;7878;44.632;10.942;2023-07-31T12:56:40;32.40;99.90
15554;DHT22;7878;44.632;10.942;2023-07-31T12:59:06;32.30;99.90
15554;DHT22;7878;44.632;10.942;2023-07-31T13:01:32;32.30;99.90
15554;DHT22;7878;44.632;10.942;2023-07-31T13:03:57;32.40;99.90
15554;DHT22;7878;44.632;10.942;2023-07-31T13:06:25;32.40;99.90
15554;DHT22;7878;44.632;10.942;2023-07-31T13:08:51;32.40;99.90
15554;DHT22;7878;44.632;10.942;2023-07-31T13:11:16;32.40;99.90
15554;DHT22;7878;44.632;10.942;2023-07-31T13:13:42;32.50;99.90
15554;DHT22;7878;44.632;10.942;2023-07-31T13:16:08;32.60;99.90
15554;DHT22;7878;44.632;10.942;2023-07-31T13:18:34;32.50;99.90
15554;DHT22;7878;44.632;10.942;2023-07-31T13:20:59;32.40;99.90
15554;DHT22;7878;44.632;10.942;2023-07-31T13:23:25;32.40;99.90
15554;DHT22;7878;44.632;10.942;2023-07-31T13:25:50;32.30;99.90
15554;DHT22;7878;44.632;10.942;2023-07-31T13:28:16;32.30;99.90
15554;DHT22;7878;44.632;10.942;2023-07-31T13:30:42;32.20;99.90
15554;DHT22;7878;44.632;10.942;2023-07-31T13:33:07;32.30;99.90
15554;DHT22;7878;44.632;10.942;2023-07-31T13:35:33;32.50;99.90
15554;DHT22;7878;44.632;10.942;2023-07-31T13:37:59;32.50;99.90
15554;DHT22;7878;44.632;10.942;2023-07-31T13:40:25;32.30;99.90
15554;DHT22;7878;44.632;10.942;2023-07-31T13:42:50;32.30;99.90
15554;DHT22;7878;44.632;10.942;2023-07-31T13:45:16;32.30;99.90
15554;DHT22;7878;44.632;10.942;2023-07-31T13:47:42;32.40;99.90
15554;DHT22;7878;44.632;10.942;2023-07-31T13:50:08;32.40;99.90
15554;DHT22;7878;44.632;10.942;2023-07-31T13:52:34;32.50;99.90
15554;DHT22;7878;44.632;10.942;2023-07-31T13:54:59;32.60;99.90
15554;DHT22;7878;44.632;10.942;2023-07-31T13:57:25;32.60;99.90
15554;DHT22;7878;44.632;10.942;2023-07-31T13:59:50;32.70;99.90
15554;DHT22;7878;44.632;10.942;2023-07-31T14:02:16;32.80;99.90
15554;DHT22;7878;44.632;10.942;2023-07-31T14:04:42;32.80;99.90
15554;DHT22;7878;44.632;10.942;2023-07-31T14:07:07;32.70;99.90
15554;DHT22;7878;44.632;10.942;2023-07-31T14:09:33;32.50;99.90
15554;DHT22;7878;44.632;10.942;2023-07-31T14:11:59;32.50;99.90
15554;DHT22;7878;44.632;10.942;2023-07-31T14:14:24;32.40;99.90
15554;DHT22;7878;44.632;10.942;2023-07-31T14:16:50;32.40;99.90
15554;DHT22;7878;44.632;10.942;2023-07-31T14:19:16;32.40;99.90
15554;DHT22;7878;44.632;10.942;2023-07-31T14:21:41;32.50;99.90
15554;DHT22;7878;44.632;10.942;2023-07-31T14:24:07;32.50;99.90
15554;DHT22;7878;44.632;10.942;2023-07-31T14:26:33;32.30;99.90
15554;DHT22;7878;44.632;10.942;2023-07-31T14:28:59;32.30;99.90
15554;DHT22;7878;44.632;10.942;2023-07-31T14:31:24;32.20;99.90
15554;DHT22;7878;44.632;10.942;2023-07-31T14:33:50;32.20;99.90
15554;DHT22;7878;44.632;10.942;2023-07-31T14:36:16;32.10;99.90
15554;DHT22;7878;44.632;10.942;2023-07-31T14:38:41;32.20;99.90
15554;DHT22;7878;44.632;10.942;2023-07-31T14:41:07;32.30;99.90
15554;DHT22;7878;44.632;10.942;2023-07-31T14:43:33;32.30;99.90
15554;DHT22;7878;44.632;10.942;2023-07-31T14:45:58;32.40;99.90
15554;DHT22;7878;44.632;10.942;2023-07-31T14:48:26;32.30;99.90
15554;DHT22;7878;44.632;10.942;2023-07-31T14:50:52;32.30;99.90
15554;DHT22;7878;44.632;10.942;2023-07-31T14:53:18;32.30;99.90
15554;DHT22;7878;44.632;10.942;2023-07-31T14:55:44;32.40;99.90
15554;DHT22;7878;44.632;10.942;2023-07-31T14:58:09;32.40;99.90
15554;DHT22;7878;44.632;10.942;2023-07-31T15:00:36;32.40;99.90
15554;DHT22;7878;44.632;10.942;2023-07-31T15:03:02;32.40;99.90
15554;DHT22;7878;44.632;10.942;2023-07-31T15:05:28;32.50;99.90
15554;DHT22;7878;44.632;10.942;2023-07-31T15:07:54;32.50;99.90
15554;DHT22;7878;44.632;10.942;2023-07-31T15:10:20;32.50;99.90
15554;DHT22;7878;44.632;10.942;2023-07-31T15:12:46;32.60;99.90
15554;DHT22;7878;44.632;10.942;2023-07-31T15:15:11;32.60;99.90
15554;DHT22;7878;44.632;10.942;2023-07-31T15:17:37;32.70;99.90
15554;DHT22;7878;44.632;10.942;2023-07-31T15:20:03;32.60;99.90
15554;DHT22;7878;44.632;10.942;2023-07-31T15:22:29;32.60;99.90
15554;DHT22;7878;44.632;10.942;2023-07-31T15:24:56;32.60;99.90
15554;DHT22;7878;44.632;10.942;2023-07-31T15:27:22;32.50;99.90
15554;DHT22;7878;44.632;10.942;2023-07-31T15:29:49;32.50;99.90
15554;DHT22;7878;44.632;10.942;2023-07-31T15:32:16;32.50;99.90
15554;DHT22;7878;44.632;10.942;2023-07-31T15:34:43;32.50;99.90
15554;DHT22;7878;44.632;10.942;2023-07-31T15:37:09;32.60;99.90
15554;DHT22;7878;44.632;10.942;2023-07-31T15:39:35;32.50;99.90
15554;DHT22;7878;44.632;10.942;2023-07-31T15:42:00;32.50;99.90
15554;DHT22;7878;44.632;10.942;2023-07-31T15:44:26;32.50;99.90
15554;DHT22;7878;44.632;10.942;2023-07-31T15:46:52;32.40;99.90